Nearby METAR Reports

 

KHQM - Hoquiam,WA, USA
Updated: 02/22/2019 7:53pm
Few Clouds
Few Clouds
 Wind from calm
Wind: Calm
Temperature: 39°F , 4°C
Dew Point: 37°F , 3°C
Humidity: 93%
Barometer: 30.00 inHg , 1015.9 hPa
Clouds: Few Clouds
Visibility: 8 miles , 13 km
Cloud details: Few Clouds 3500 ft
2019/02/23 03:53 KHQM 230353Z AUTO 00000KT 8SM FEW035 04/03 A3000 RMK AO2 SLP163 T00440028